Time;durP1;ratioP1;P1;durP2;ratioP2;P2;SDS_P1;SDS_P2;PMS_P1;PMS_P2;Temp;Humidity;BMP_temperature;BMP_pressure;BME280_temperature;BME280_humidity;BME280_pressure;Samples;Min_cycle;Max_cycle;Signal;HPM_P1;HPM_P2
2021/12/01 00:01:20;;;;;;;1.52;0.75;;;10.00;99.90;;;;;;4996124;28;20116;-78
2021/12/01 00:03:45;;;;;;;5.47;1.50;;;10.00;99.90;;;;;;4995762;28;20105;-78
2021/12/01 00:06:11;;;;;;;3.50;1.30;;;10.00;99.90;;;;;;4978304;28;20037;-78
2021/12/01 00:08:37;;;;;;;6.57;1.75;;;10.00;99.90;;;;;;4996198;28;20432;-78
2021/12/01 00:11:03;;;;;;;7.25;2.85;;;10.00;99.90;;;;;;4979288;28;20019;-78
2021/12/01 00:13:32;;;;;;;6.28;2.90;;;10.00;99.90;;;;;;4995960;28;20029;-78
2021/12/01 00:15:57;;;;;;;8.48;3.38;;;10.00;99.90;;;;;;4976682;28;20476;-79
2021/12/01 00:18:23;;;;;;;7.50;3.33;;;10.00;99.90;;;;;;4976498;28;20023;-79
2021/12/01 00:20:49;;;;;;;7.40;3.30;;;10.00;99.90;;;;;;4975984;28;20106;-78
2021/12/01 00:23:14;;;;;;;9.05;3.22;;;10.00;99.90;;;;;;4976713;28;20054;-78
2021/12/01 00:25:42;;;;;;;6.38;2.95;;;10.00;99.90;;;;;;4960934;28;20050;-79
2021/12/01 00:28:08;;;;;;;6.45;2.80;;;10.00;99.90;;;;;;4995554;28;20046;-78
2021/12/01 00:30:34;;;;;;;6.60;3.42;;;10.10;99.90;;;;;;4978231;28;20019;-78
2021/12/01 00:33:00;;;;;;;6.55;2.10;;;10.10;99.90;;;;;;4995853;28;20099;-79
2021/12/01 00:35:27;;;;;;;7.65;2.47;;;10.10;99.90;;;;;;4995304;28;20034;-78
2021/12/01 00:37:53;;;;;;;7.38;3.17;;;10.10;99.90;;;;;;4995825;28;20034;-79
2021/12/01 00:40:19;;;;;;;7.40;2.83;;;10.10;99.90;;;;;;4996169;28;20032;-78
2021/12/01 00:42:45;;;;;;;7.35;3.30;;;10.10;99.90;;;;;;4978279;28;20113;-79
2021/12/01 00:45:16;;;;;;;11.52;3.30;;;10.10;99.90;;;;;;4977844;28;20077;-78
2021/12/01 00:47:44;;;;;;;10.65;3.15;;;10.10;99.90;;;;;;4995262;28;20109;-78
2021/12/01 00:50:18;;;;;;;6.57;3.50;;;10.10;99.90;;;;;;4977926;28;20027;-79
2021/12/01 00:52:43;;;;;;;5.75;3.25;;;10.20;99.90;;;;;;4995094;28;20041;-79
2021/12/01 00:55:09;;;;;;;4.30;1.95;;;10.20;99.90;;;;;;4977894;28;20026;-79
2021/12/01 00:57:35;;;;;;;6.35;2.25;;;10.20;99.90;;;;;;4994140;28;20033;-78
2021/12/01 01:00:04;;;;;;;5.07;1.90;;;10.20;99.90;;;;;;4977024;28;20034;-78
2021/12/01 01:02:30;;;;;;;8.18;1.92;;;10.30;99.90;;;;;;4977133;28;20018;-78
2021/12/01 01:04:55;;;;;;;2.65;1.17;;;10.30;99.90;;;;;;4977056;28;20073;-78
2021/12/01 01:07:21;;;;;;;3.35;1.50;;;10.40;99.90;;;;;;4994492;28;20220;-78
2021/12/01 01:09:46;;;;;;;6.95;1.13;;;10.40;99.90;;;;;;4977016;28;20018;-78
2021/12/01 01:17:42;;;;;;;1.52;0.52;;;10.30;99.90;;;;;;4995186;28;20546;-78
2021/12/01 01:20:13;;;;;;;2.05;1.00;;;10.30;99.90;;;;;;4995045;28;20030;-78
2021/12/01 01:22:39;;;;;;;3.08;0.70;;;10.30;99.90;;;;;;4994742;28;20038;-78
2021/12/01 01:25:07;;;;;;;3.15;0.82;;;10.30;99.90;;;;;;4994834;28;20030;-79
2021/12/01 01:27:33;;;;;;;1.20;0.47;;;10.40;99.90;;;;;;4994377;28;20037;-78
2021/12/01 01:30:00;;;;;;;5.15;0.55;;;10.30;99.90;;;;;;4976930;28;20035;-78
2021/12/01 01:32:26;;;;;;;1.35;0.50;;;10.20;99.90;;;;;;4994309;28;20029;-78
2021/12/01 01:34:51;;;;;;;2.75;0.40;;;10.20;99.90;;;;;;4994335;28;20026;-79
2021/12/01 01:37:17;;;;;;;1.10;0.50;;;10.20;99.90;;;;;;4994086;28;20026;-78
2021/12/01 01:39:42;;;;;;;2.67;0.30;;;10.20;99.90;;;;;;4994321;28;20073;-78
2021/12/01 01:42:08;;;;;;;2.28;0.55;;;10.20;99.90;;;;;;4994113;28;20370;-77
2021/12/01 01:44:34;;;;;;;3.90;0.30;;;10.20;99.90;;;;;;4976526;28;20029;-77
2021/12/01 01:47:00;;;;;;;0.50;0.20;;;10.20;99.90;;;;;;4976631;28;20038;-77
2021/12/01 01:49:42;;;;;;;1.38;0.30;;;10.20;99.90;;;;;;4976648;28;20018;-77
2021/12/01 01:52:08;;;;;;;1.75;0.70;;;10.20;99.90;;;;;;4976603;28;20077;-77
2021/12/01 01:54:33;;;;;;;2.17;0.60;;;10.20;99.90;;;;;;4976550;28;20030;-77
2021/12/01 01:56:59;;;;;;;1.48;0.20;;;10.20;99.90;;;;;;4994259;28;20039;-77
2021/12/01 01:59:24;;;;;;;1.92;0.68;;;10.10;99.90;;;;;;4976424;28;20027;-77
2021/12/01 02:01:58;;;;;;;2.35;0.35;;;10.10;99.90;;;;;;4976688;28;20026;-78
2021/12/01 02:04:25;;;;;;;1.80;0.45;;;10.10;99.90;;;;;;4994503;28;20042;-79
2021/12/01 02:06:51;;;;;;;0.98;0.10;;;10.10;99.90;;;;;;4977647;28;20105;-78
2021/12/01 02:09:22;;;;;;;4.25;0.88;;;10.00;99.90;;;;;;4995695;28;20542;-79
2021/12/01 02:11:50;;;;;;;3.08;0.98;;;10.00;99.90;;;;;;4998947;28;20026;-78
2021/12/01 02:14:16;;;;;;;3.00;1.10;;;10.00;99.90;;;;;;4998613;28;20072;-78
2021/12/01 02:16:42;;;;;;;3.08;1.35;;;10.00;99.90;;;;;;4980600;28;20026;-78
2021/12/01 02:19:08;;;;;;;5.00;0.95;;;10.00;99.90;;;;;;4998513;28;20027;-79
2021/12/01 02:21:34;;;;;;;3.30;0.90;;;10.00;99.90;;;;;;4998503;28;20029;-79
2021/12/01 02:24:09;;;;;;;5.63;0.80;;;9.90;99.90;;;;;;4980588;28;20353;-79
2021/12/01 02:26:41;;;;;;;3.00;0.80;;;10.00;99.90;;;;;;4981580;28;20038;-80
2021/12/01 02:29:10;;;;;;;5.57;0.95;;;9.90;99.90;;;;;;4999574;28;20050;-79
2021/12/01 02:31:37;;;;;;;3.45;1.20;;;9.90;99.90;;;;;;4998558;28;20130;-79
2021/12/01 02:34:05;;;;;;;2.97;0.68;;;9.90;99.90;;;;;;4998787;28;20034;-79
2021/12/01 02:36:31;;;;;;;3.92;1.05;;;9.90;99.90;;;;;;4998082;28;20034;-78
2021/12/01 02:38:57;;;;;;;1.95;0.10;;;9.80;99.90;;;;;;4997183;28;20030;-78
2021/12/01 02:41:28;;;;;;;1.00;0.40;;;9.80;99.90;;;;;;4998874;28;20032;-79
2021/12/01 02:43:54;;;;;;;0.70;0.20;;;9.80;99.90;;;;;;4980238;28;20476;-79
2021/12/01 02:46:20;;;;;;;1.58;0.25;;;9.80;99.90;;;;;;4979681;28;20030;-78
2021/12/01 02:48:46;;;;;;;1.80;0.40;;;9.80;99.90;;;;;;4980586;28;20105;-80
2021/12/01 02:51:12;;;;;;;0.77;0.10;;;9.80;99.90;;;;;;4981268;28;20030;-79
2021/12/01 02:53:39;;;;;;;2.40;0.45;;;9.80;99.90;;;;;;4997859;28;20034;-80
2021/12/01 02:56:07;;;;;;;2.15;0.65;;;9.80;99.90;;;;;;4981032;28;20019;-79
2021/12/01 02:58:38;;;;;;;1.48;0.35;;;9.80;99.90;;;;;;4981346;28;20488;-79
2021/12/01 03:01:06;;;;;;;2.20;1.00;;;9.80;99.90;;;;;;4999018;28;20080;-79
2021/12/01 03:03:32;;;;;;;2.38;0.38;;;9.80;99.90;;;;;;4980791;28;20018;-79
2021/12/01 03:05:58;;;;;;;0.40;0.30;;;9.80;99.90;;;;;;4981136;28;20104;-79
2021/12/01 03:08:24;;;;;;;2.10;0.30;;;9.80;99.90;;;;;;4998520;28;20022;-79
2021/12/01 03:10:52;;;;;;;1.70;0.65;;;9.70;99.90;;;;;;4998544;28;20029;-79
2021/12/01 03:13:20;;;;;;;0.65;0.40;;;9.70;99.90;;;;;;4981366;28;20028;-79
2021/12/01 03:15:47;;;;;;;2.83;0.65;;;9.70;99.90;;;;;;4980979;28;20480;-80
2021/12/01 03:18:13;;;;;;;1.92;0.38;;;9.70;99.90;;;;;;4998635;28;20114;-79
2021/12/01 03:20:40;;;;;;;2.17;0.63;;;9.70;99.90;;;;;;4997608;28;20483;-80
2021/12/01 03:23:06;;;;;;;5.78;1.30;;;9.60;99.90;;;;;;4980268;28;20029;-80
2021/12/01 03:25:32;;;;;;;5.35;1.33;;;9.60;99.90;;;;;;4998756;28;20041;-80
2021/12/01 03:27:58;;;;;;;3.20;1.10;;;9.60;99.90;;;;;;4997638;28;20030;-80
2021/12/01 03:30:23;;;;;;;4.75;0.77;;;9.60;99.90;;;;;;4979865;28;20022;-82
2021/12/01 03:32:50;;;;;;;2.97;0.40;;;9.60;99.90;;;;;;4997567;28;20082;-80
2021/12/01 03:35:16;;;;;;;0.80;0.43;;;9.60;99.90;;;;;;4980169;28;20027;-80
2021/12/01 03:37:45;;;;;;;2.63;0.65;;;10.70;99.90;;;;;;4980694;28;20212;-80
2021/12/01 03:40:12;;;;;;;1.67;0.43;;;9.60;99.90;;;;;;4998489;28;20472;-80
2021/12/01 03:42:38;;;;;;;1.83;0.75;;;9.60;99.90;;;;;;4995736;28;20081;-78
2021/12/01 03:45:06;;;;;;;1.55;0.43;;;9.60;99.90;;;;;;4995862;28;20038;-78
2021/12/01 03:47:32;;;;;;;2.70;0.80;;;9.60;99.90;;;;;;4995627;28;20117;-78
2021/12/01 03:49:58;;;;;;;1.83;0.63;;;9.60;99.90;;;;;;4995650;28;20050;-78
2021/12/01 03:52:24;;;;;;;2.10;0.70;;;9.50;99.90;;;;;;4995441;28;20053;-78
2021/12/01 03:54:51;;;;;;;0.57;0.20;;;9.60;99.90;;;;;;4978119;28;20028;-78
2021/12/01 03:57:17;;;;;;;1.70;0.50;;;9.50;99.90;;;;;;4978228;28;20092;-79
2021/12/01 03:59:43;;;;;;;2.20;0.63;;;9.50;99.90;;;;;;4980211;28;20036;-79
2021/12/01 04:02:09;;;;;;;1.90;0.22;;;9.50;99.90;;;;;;4978239;28;20018;-77
2021/12/01 04:04:35;;;;;;;0.80;0.35;;;9.50;99.90;;;;;;4995499;28;20049;-76
2021/12/01 04:07:01;;;;;;;0.75;0.13;;;9.50;99.90;;;;;;4994954;28;20062;-75
2021/12/01 04:09:27;;;;;;;1.42;0.20;;;9.50;99.90;;;;;;4995228;28;20026;-76
2021/12/01 04:11:53;;;;;;;1.75;0.20;;;9.40;99.90;;;;;;4977783;28;20057;-76
2021/12/01 04:14:19;;;;;;;1.52;0.20;;;9.50;99.90;;;;;;4977768;28;20093;-76
2021/12/01 04:16:44;;;;;;;1.10;0.30;;;9.50;99.90;;;;;;4977796;28;20023;-76
2021/12/01 04:19:10;;;;;;;0.93;0.20;;;9.40;99.90;;;;;;4995433;28;20086;-75
2021/12/01 04:21:36;;;;;;;1.60;0.50;;;9.40;99.90;;;;;;4977743;28;20475;-77
2021/12/01 04:24:03;;;;;;;0.65;0.22;;;9.40;99.90;;;;;;4995146;28;20026;-75
2021/12/01 04:26:31;;;;;;;0.43;0.15;;;9.30;99.90;;;;;;4994958;28;20030;-77
2021/12/01 04:28:57;;;;;;;0.65;0.20;;;9.30;99.90;;;;;;4994828;28;20021;-77
2021/12/01 04:31:24;;;;;;;0.43;0.20;;;9.30;99.90;;;;;;4994878;28;20022;-77
2021/12/01 04:33:49;;;;;;;0.35;0.20;;;9.20;99.90;;;;;;4976945;28;20030;-76
2021/12/01 04:36:18;;;;;;;1.38;0.30;;;9.20;99.90;;;;;;4994951;28;20492;-76
2021/12/01 04:38:45;;;;;;;0.52;0.20;;;9.20;99.90;;;;;;4994707;28;20054;-76
2021/12/01 04:41:13;;;;;;;1.88;0.40;;;9.10;99.90;;;;;;4995121;28;20441;-77
2021/12/01 04:43:39;;;;;;;1.38;0.55;;;9.10;99.90;;;;;;4977490;28;20392;-77
2021/12/01 04:46:09;;;;;;;1.55;0.60;;;9.00;99.90;;;;;;4994703;28;20027;-77
2021/12/01 04:48:34;;;;;;;0.40;0.30;;;9.00;99.90;;;;;;4976938;28;20023;-77
2021/12/01 04:51:00;;;;;;;1.48;0.57;;;9.00;99.90;;;;;;4994408;28;20034;-77
2021/12/01 04:53:27;;;;;;;0.73;0.40;;;9.00;99.90;;;;;;4994111;28;20490;-76
2021/12/01 04:55:53;;;;;;;0.60;0.50;;;8.90;99.90;;;;;;4976590;28;20077;-77
2021/12/01 04:58:20;;;;;;;2.70;1.17;;;8.90;99.90;;;;;;4994190;28;20062;-77
2021/12/01 05:00:45;;;;;;;1.23;0.95;;;8.90;99.90;;;;;;4994040;28;20545;-77
2021/12/01 05:03:11;;;;;;;2.05;1.00;;;8.90;99.90;;;;;;4994281;28;20034;-77
2021/12/01 05:05:37;;;;;;;2.83;1.10;;;8.90;99.90;;;;;;4993637;28;20037;-77
2021/12/01 05:08:03;;;;;;;2.22;1.00;;;8.90;99.90;;;;;;4993857;28;20490;-77
2021/12/01 05:10:29;;;;;;;1.38;1.08;;;8.90;99.90;;;;;;4993938;28;20022;-78
2021/12/01 05:12:54;;;;;;;1.02;0.80;;;8.90;99.90;;;;;;4994494;28;20030;-77
2021/12/01 05:15:20;;;;;;;1.30;0.77;;;8.90;99.90;;;;;;4994178;28;20463;-75
2021/12/01 05:17:46;;;;;;;1.08;0.90;;;8.90;99.90;;;;;;4976321;28;20026;-76
2021/12/01 05:20:12;;;;;;;1.67;0.98;;;8.80;99.90;;;;;;4993843;28;20022;-76
2021/12/01 05:22:38;;;;;;;1.08;0.65;;;8.80;99.90;;;;;;4993807;28;20041;-77
2021/12/01 05:25:05;;;;;;;0.75;0.40;;;9.20;99.90;;;;;;4976694;28;20029;-76
2021/12/01 05:27:30;;;;;;;1.95;0.90;;;8.80;99.90;;;;;;4993646;28;20023;-75
2021/12/01 05:29:56;;;;;;;1.63;1.20;;;8.80;99.90;;;;;;4993731;28;20025;-76
2021/12/01 05:32:22;;;;;;;1.48;1.00;;;8.80;99.90;;;;;;4993612;28;20027;-77
2021/12/01 05:34:47;;;;;;;1.50;1.27;;;8.80;99.90;;;;;;4993730;28;20027;-76
2021/12/01 05:37:13;;;;;;;1.55;0.90;;;8.80;99.90;;;;;;4993520;28;20053;-77
2021/12/01 05:39:41;;;;;;;1.25;1.08;;;8.80;99.90;;;;;;4976070;28;20026;-77
2021/12/01 05:42:07;;;;;;;0.90;0.80;;;8.80;99.90;;;;;;4976543;28;20081;-76
2021/12/01 05:44:34;;;;;;;1.88;1.30;;;8.80;99.90;;;;;;4977555;28;20022;-76
2021/12/01 05:47:00;;;;;;;2.50;1.55;;;8.70;99.90;;;;;;4997312;28;20034;-76
2021/12/01 05:49:26;;;;;;;2.75;1.23;;;8.70;99.90;;;;;;4997569;28;20077;-76
2021/12/01 05:51:52;;;;;;;4.13;1.20;;;8.70;99.90;;;;;;4979743;28;20471;-75
2021/12/01 05:54:18;;;;;;;2.20;1.55;;;8.80;99.90;;;;;;4997383;28;20027;-75
2021/12/01 05:56:43;;;;;;;2.40;1.25;;;8.70;99.90;;;;;;4997721;28;20033;-75
2021/12/01 05:59:09;;;;;;;1.83;1.08;;;8.80;99.90;;;;;;4979720;28;20035;-77
2021/12/01 06:01:34;;;;;;;5.75;1.15;;;8.80;99.90;;;;;;4997067;28;20435;-76
2021/12/01 06:04:00;;;;;;;1.83;0.90;;;8.80;99.90;;;;;;4979596;28;20018;-75
2021/12/01 06:06:25;;;;;;;3.88;1.02;;;8.80;99.90;;;;;;4997128;28;20018;-74
2021/12/01 06:08:51;;;;;;;1.80;0.50;;;8.80;99.90;;;;;;4996951;28;20018;-76
2021/12/01 06:11:19;;;;;;;2.00;0.75;;;8.80;99.90;;;;;;4979441;28;20033;-76
2021/12/01 06:13:45;;;;;;;4.07;1.15;;;8.80;99.90;;;;;;4979482;28;20468;-76
2021/12/01 06:16:11;;;;;;;1.33;0.52;;;8.80;99.90;;;;;;4996927;28;20032;-76
2021/12/01 06:18:36;;;;;;;2.55;1.13;;;8.70;99.90;;;;;;4979298;28;20426;-75
2021/12/01 06:21:03;;;;;;;2.05;0.70;;;8.70;99.90;;;;;;4997377;28;20034;-74
2021/12/01 06:23:28;;;;;;;2.08;1.00;;;8.70;99.90;;;;;;4996957;28;20045;-75
2021/12/01 06:25:54;;;;;;;5.38;1.45;;;8.70;99.90;;;;;;4996747;28;20026;-76
2021/12/01 06:28:19;;;;;;;2.17;1.10;;;8.70;99.90;;;;;;4979018;28;20022;-76
2021/12/01 06:30:45;;;;;;;2.45;1.23;;;8.70;99.90;;;;;;4979110;28;20076;-76
2021/12/01 06:33:11;;;;;;;3.38;1.27;;;8.70;99.90;;;;;;4979163;28;20022;-73
2021/12/01 06:35:37;;;;;;;2.83;0.68;;;8.70;99.90;;;;;;4996496;28;20010;-73
2021/12/01 06:38:03;;;;;;;1.40;0.45;;;10.80;99.90;;;;;;4996419;28;20027;-73
2021/12/01 06:40:29;;;;;;;2.72;0.88;;;8.70;99.90;;;;;;4980102;28;20033;-73
2021/12/01 06:42:54;;;;;;;2.20;0.82;;;8.80;99.90;;;;;;4996650;28;20376;-73
2021/12/01 06:45:21;;;;;;;3.80;1.23;;;8.80;99.90;;;;;;4996327;28;20532;-73
2021/12/01 06:47:47;;;;;;;2.53;1.00;;;8.80;99.90;;;;;;4996401;28;20464;-73
2021/12/01 06:50:13;;;;;;;4.75;1.02;;;8.80;99.90;;;;;;4997230;28;20022;-73
2021/12/01 06:52:39;;;;;;;4.28;1.00;;;8.80;99.90;;;;;;4996997;28;20077;-73
2021/12/01 06:55:07;;;;;;;3.08;1.00;;;8.80;99.90;;;;;;4996471;28;20057;-74
2021/12/01 06:57:33;;;;;;;2.40;1.02;;;8.80;99.90;;;;;;4978395;28;20027;-75
2021/12/01 06:59:59;;;;;;;3.95;1.30;;;8.80;99.90;;;;;;4996439;28;20434;-79
2021/12/01 07:02:24;;;;;;;2.75;1.20;;;8.80;99.90;;;;;;4979024;28;20483;-75
2021/12/01 07:04:50;;;;;;;4.68;0.98;;;8.90;99.90;;;;;;4996691;28;20057;-76
2021/12/01 07:07:16;;;;;;;2.40;0.95;;;8.90;99.90;;;;;;4999012;28;20019;-79
2021/12/01 07:09:44;;;;;;;1.50;0.63;;;8.90;99.90;;;;;;4997145;28;20023;-78
2021/12/01 07:12:10;;;;;;;2.63;0.73;;;8.90;99.90;;;;;;4996226;28;20490;-73
2021/12/01 07:14:36;;;;;;;1.65;0.35;;;8.90;99.90;;;;;;4996037;28;20027;-73
2021/12/01 07:17:01;;;;;;;1.50;0.70;;;8.90;99.90;;;;;;4978581;28;20498;-72
2021/12/01 07:19:27;;;;;;;2.88;0.75;;;9.00;99.90;;;;;;4978602;28;20121;-72
2021/12/01 07:21:53;;;;;;;1.00;0.30;;;8.90;99.90;;;;;;4994955;28;20077;-72
2021/12/01 07:24:20;;;;;;;1.38;0.40;;;9.00;99.90;;;;;;4978344;28;20036;-73
2021/12/01 07:26:46;;;;;;;0.85;0.20;;;9.00;99.90;;;;;;4995830;28;20023;-74
2021/12/01 07:29:15;;;;;;;2.10;0.28;;;9.00;99.90;;;;;;4978638;28;20033;-73
2021/12/01 07:31:40;;;;;;;2.67;0.10;;;9.10;99.90;;;;;;4978533;28;20026;-74
2021/12/01 07:34:06;;;;;;;2.17;0.40;;;9.10;99.90;;;;;;4996587;28;20033;-73
2021/12/01 07:36:31;;;;;;;0.57;0.10;;;9.10;99.90;;;;;;4995709;28;20027;-74
2021/12/01 07:38:59;;;;;;;3.97;0.20;;;9.10;99.90;;;;;;4995662;28;20069;-74
2021/12/01 07:41:26;;;;;;;4.20;0.10;;;9.10;99.90;;;;;;4995792;28;20092;-73
2021/12/01 07:43:51;;;;;;;0.35;0.10;;;9.10;99.90;;;;;;4978264;28;20030;-73
2021/12/01 07:46:17;;;;;;;0.63;0.20;;;9.20;99.90;;;;;;4995352;28;20109;-74
2021/12/01 07:48:43;;;;;;;4.15;1.30;;;9.20;99.90;;;;;;4995516;28;20371;-74
2021/12/01 07:51:08;;;;;;;2.95;1.13;;;9.20;99.90;;;;;;4995150;28;20026;-74
2021/12/01 07:53:34;;;;;;;1.67;0.52;;;9.20;99.90;;;;;;4995296;28;20081;-75
2021/12/01 07:56:02;;;;;;;3.28;0.20;;;9.20;99.90;;;;;;4995035;28;20508;-74
2021/12/01 07:58:29;;;;;;;0.90;0.30;;;9.20;99.90;;;;;;4977568;28;20053;-74
2021/12/01 08:00:54;;;;;;;1.98;0.63;;;9.30;99.90;;;;;;4994879;28;20030;-74
2021/12/01 08:03:20;;;;;;;1.65;0.35;;;9.30;99.90;;;;;;4994849;28;20037;-74
2021/12/01 08:05:45;;;;;;;5.57;1.10;;;9.30;99.90;;;;;;4994766;28;20026;-74
2021/12/01 08:08:11;;;;;;;3.17;0.57;;;9.30;99.90;;;;;;4994570;28;20023;-73
2021/12/01 08:10:37;;;;;;;4.15;0.75;;;9.30;99.90;;;;;;4994677;28;20441;-74
2021/12/01 08:13:04;;;;;;;2.60;0.75;;;9.30;99.90;;;;;;4994953;28;20100;-74
2021/12/01 08:15:30;;;;;;;2.10;0.43;;;9.30;99.90;;;;;;4994847;28;20053;-75
2021/12/01 08:17:56;;;;;;;4.50;0.30;;;9.20;99.90;;;;;;4977860;28;20364;-73
2021/12/01 08:20:21;;;;;;;0.68;0.03;;;9.30;99.90;;;;;;4977176;28;20023;-73
2021/12/01 08:22:47;;;;;;;4.18;0.10;;;9.30;99.90;;;;;;4977185;28;20030;-74
2021/12/01 08:25:14;;;;;;;1.17;0.10;;;9.20;99.90;;;;;;4977022;28;20504;-74
2021/12/01 08:27:40;;;;;;;2.30;0.40;;;9.20;99.90;;;;;;4994303;28;20403;-74
2021/12/01 08:30:07;;;;;;;11.82;1.00;;;9.20;99.90;;;;;;4994429;28;20022;-74
2021/12/01 08:32:33;;;;;;;5.18;0.28;;;9.10;99.90;;;;;;4994231;28;20125;-73
2021/12/01 08:34:59;;;;;;;2.47;0.05;;;9.10;99.90;;;;;;4994304;28;20026;-73
2021/12/01 08:37:25;;;;;;;2.20;0.30;;;9.00;99.90;;;;;;4994149;28;20034;-74
2021/12/01 08:39:51;;;;;;;2.20;0.00;;;9.00;99.90;;;;;;4994624;28;20058;-74
2021/12/01 08:42:19;;;;;;;5.30;0.82;;;9.00;99.90;;;;;;4994149;28;20030;-73
2021/12/01 08:44:47;;;;;;;4.13;0.35;;;9.00;99.90;;;;;;4994164;28;20061;-74
2021/12/01 08:47:20;;;;;;;0.75;0.20;;;9.00;99.90;;;;;;4994267;28;20057;-74
2021/12/01 08:49:46;;;;;;;2.35;0.28;;;9.00;99.90;;;;;;4976633;28;20026;-73
2021/12/01 08:52:12;;;;;;;5.90;0.20;;;9.10;99.90;;;;;;4976789;28;20484;-73
2021/12/01 08:54:38;;;;;;;2.70;0.00;;;9.00;99.90;;;;;;4993983;28;20452;-74
2021/12/01 08:57:06;;;;;;;8.02;0.17;;;9.00;99.90;;;;;;4993905;28;20050;-74
2021/12/01 08:59:32;;;;;;;6.53;0.17;;;9.00;99.90;;;;;;4994102;28;20034;-74
2021/12/01 09:02:00;;;;;;;6.43;0.90;;;9.00;99.90;;;;;;4994028;28;20037;-74
2021/12/01 09:04:26;;;;;;;13.30;0.20;;;9.00;99.90;;;;;;4993939;28;20027;-74
2021/12/01 09:06:52;;;;;;;5.05;0.00;;;9.00;99.90;;;;;;4993764;28;20037;-74
2021/12/01 09:09:18;;;;;;;5.95;0.65;;;9.00;99.90;;;;;;4976444;28;20026;-74
2021/12/01 09:11:48;;;;;;;4.90;0.10;;;9.00;99.90;;;;;;4993881;28;20026;-74
2021/12/01 09:14:14;;;;;;;1.58;0.00;;;9.10;99.90;;;;;;4993720;28;20114;-74
2021/12/01 09:16:41;;;;;;;6.53;0.30;;;9.10;99.90;;;;;;4976208;28;20065;-74
2021/12/01 09:19:06;;;;;;;4.53;0.15;;;9.10;99.90;;;;;;4994540;28;20156;-75
2021/12/01 09:21:32;;;;;;;2.85;0.22;;;9.20;99.90;;;;;;4980383;28;20063;-75
2021/12/01 09:23:58;;;;;;;2.03;0.20;;;9.40;99.90;;;;;;4997833;28;20030;-75
2021/12/01 09:26:23;;;;;;;2.30;0.00;;;9.40;99.90;;;;;;4998224;28;20026;-74
2021/12/01 09:28:49;;;;;;;4.35;0.10;;;9.40;99.90;;;;;;4997673;28;20050;-74
2021/12/01 09:31:15;;;;;;;6.72;0.25;;;9.30;99.90;;;;;;4997819;28;20391;-74
2021/12/01 09:33:40;;;;;;;5.82;0.25;;;9.30;99.90;;;;;;4980197;28;20030;-74
2021/12/01 09:36:06;;;;;;;2.85;0.00;;;9.30;99.90;;;;;;4997438;28;20033;-74
2021/12/01 09:38:32;;;;;;;0.45;0.00;;;9.20;99.90;;;;;;4997509;28;20026;-74
2021/12/01 09:40:58;;;;;;;2.30;0.35;;;9.30;99.90;;;;;;4980007;28;20080;-74
2021/12/01 09:43:27;;;;;;;7.60;0.10;;;9.20;99.90;;;;;;4997504;28;20045;-74
2021/12/01 09:45:55;;;;;;;2.15;0.10;;;9.20;99.90;;;;;;4997428;28;20073;-73
2021/12/01 09:48:21;;;;;;;2.28;0.15;;;9.20;99.90;;;;;;4997502;28;20081;-73
2021/12/01 09:50:47;;;;;;;3.85;0.30;;;9.10;99.90;;;;;;4979695;28;20022;-74
2021/12/01 09:53:13;;;;;;;4.07;0.10;;;9.00;99.90;;;;;;4997770;28;20034;-74
2021/12/01 09:55:40;;;;;;;4.18;0.00;;;9.00;99.90;;;;;;4979948;28;20434;-74
2021/12/01 09:58:12;;;;;;;6.32;0.00;;;8.90;99.90;;;;;;4979714;28;20034;-74
2021/12/01 10:00:41;;;;;;;5.10;0.10;;;8.90;99.90;;;;;;4997265;28;20026;-74
2021/12/01 10:03:07;;;;;;;4.32;0.00;;;8.90;99.90;;;;;;4997442;28;20566;-74
2021/12/01 10:06:04;;;;;;;3.05;0.28;;;8.90;99.90;;;;;;4997645;28;20022;-74
2021/12/01 10:08:39;;;;;;;3.15;0.10;;;8.80;99.90;;;;;;4997185;28;20076;-75
2021/12/01 10:11:23;;;;;;;3.10;0.30;;;8.80;99.90;;;;;;4996886;28;20423;-73
2021/12/01 10:13:57;;;;;;;3.40;0.00;;;8.80;99.90;;;;;;4979414;28;20018;-74
2021/12/01 10:16:29;;;;;;;3.60;0.00;;;8.80;99.90;;;;;;4997087;28;20356;-74
2021/12/01 10:19:01;;;;;;;1.25;0.00;;;8.80;99.90;;;;;;4996896;28;20023;-73
2021/12/01 10:21:35;;;;;;;2.85;0.00;;;8.90;99.90;;;;;;4996874;28;20041;-73
2021/12/01 10:24:07;;;;;;;6.88;0.00;;;8.80;99.90;;;;;;4996705;28;20393;-73
2021/12/01 10:26:39;;;;;;;5.28;0.10;;;8.80;99.90;;;;;;4979172;28;20022;-73
2021/12/01 10:29:08;;;;;;;7.03;0.00;;;8.80;99.90;;;;;;4979145;28;20077;-72
2021/12/01 10:31:41;;;;;;;2.38;0.05;;;8.90;99.90;;;;;;4996493;28;20089;-74
2021/12/01 10:34:35;;;;;;;8.05;0.32;;;8.90;99.90;;;;;;4996463;28;20027;-73
2021/12/01 10:37:31;;;;;;;2.03;0.22;;;9.00;99.90;;;;;;4997028;28;20030;-72
2021/12/01 10:40:15;;;;;;;5.75;0.52;;;9.10;99.90;;;;;;4996452;28;20018;-73
2021/12/01 10:43:01;;;;;;;1.38;0.10;;;9.10;99.90;;;;;;4997063;28;20371;-73
2021/12/01 10:45:36;;;;;;;5.53;0.43;;;9.20;99.90;;;;;;4996940;28;20038;-73
2021/12/01 10:48:04;;;;;;;5.57;0.10;;;9.20;99.90;;;;;;4978815;28;20411;-74
2021/12/01 10:50:32;;;;;;;5.95;0.60;;;9.20;99.90;;;;;;4979019;28;20026;-73
2021/12/01 10:53:05;;;;;;;5.90;0.17;;;9.40;99.90;;;;;;4978853;28;20019;-74
2021/12/01 10:55:32;;;;;;;3.58;0.20;;;9.50;99.90;;;;;;4978763;28;20022;-73
2021/12/01 10:58:04;;;;;;;1.90;0.00;;;9.60;99.90;;;;;;4978637;28;20025;-73
2021/12/01 11:00:41;;;;;;;7.60;0.10;;;9.60;99.90;;;;;;4978583;28;20049;-73
2021/12/01 11:03:17;;;;;;;3.33;0.30;;;9.70;99.90;;;;;;4979204;28;20422;-73
2021/12/01 11:05:50;;;;;;;4.47;1.02;;;9.60;99.90;;;;;;4996035;28;20048;-75
2021/12/01 11:08:20;;;;;;;6.03;0.20;;;9.60;99.90;;;;;;4978339;28;20121;-74
2021/12/01 11:10:47;;;;;;;9.48;0.22;;;9.60;99.90;;;;;;4978394;28;20026;-74
2021/12/01 11:13:13;;;;;;;7.57;0.22;;;9.60;99.90;;;;;;4995970;28;20018;-74
2021/12/01 11:15:47;;;;;;;7.50;0.10;;;9.50;99.90;;;;;;4994435;28;20069;-73
2021/12/01 11:18:22;;;;;;;4.65;0.13;;;9.50;99.90;;;;;;4996186;28;20444;-73
2021/12/01 11:20:53;;;;;;;2.20;0.60;;;9.50;99.90;;;;;;4995725;28;20057;-74
2021/12/01 11:23:23;;;;;;;3.97;0.00;;;9.50;99.90;;;;;;4995849;28;20499;-74
2021/12/01 11:25:52;;;;;;;7.90;0.10;;;9.50;99.90;;;;;;4995241;28;20476;-74
2021/12/01 11:28:20;;;;;;;2.97;0.10;;;9.60;99.90;;;;;;4976989;28;20633;-75
2021/12/01 11:30:49;;;;;;;5.55;0.70;;;9.60;99.90;;;;;;4995504;28;20020;-74
2021/12/01 11:33:17;;;;;;;3.88;0.43;;;9.60;99.90;;;;;;4995465;28;20026;-74
2021/12/01 11:36:07;;;;;;;2.97;0.10;;;9.60;99.90;;;;;;4995395;28;20038;-73
2021/12/01 11:38:35;;;;;;;4.80;0.00;;;9.60;99.90;;;;;;4994551;28;20278;-75
2021/12/01 11:41:01;;;;;;;6.15;0.10;;;9.70;99.90;;;;;;4977903;28;20030;-74
2021/12/01 11:43:30;;;;;;;8.60;0.15;;;9.60;99.90;;;;;;4994861;28;20057;-74
2021/12/01 11:45:56;;;;;;;5.67;0.07;;;9.60;99.90;;;;;;4995314;28;20034;-74
2021/12/01 11:48:39;;;;;;;2.83;0.10;;;9.60;99.90;;;;;;4995120;28;20065;-73
2021/12/01 11:51:23;;;;;;;2.60;0.35;;;9.60;99.90;;;;;;4977513;28;20030;-74
2021/12/01 11:53:55;;;;;;;10.30;1.20;;;9.60;99.90;;;;;;4995139;28;20388;-74
2021/12/01 11:56:28;;;;;;;7.70;0.90;;;9.60;99.90;;;;;;4977698;28;20392;-74
2021/12/01 11:58:54;;;;;;;6.80;0.45;;;9.50;99.90;;;;;;4994904;28;20022;-75
2021/12/01 12:01:22;;;;;;;3.17;0.00;;;9.50;99.90;;;;;;4995168;28;20471;-74
2021/12/01 12:03:54;;;;;;;9.35;0.30;;;9.50;99.90;;;;;;4994923;28;20025;-74
2021/12/01 12:06:22;;;;;;;1.13;0.00;;;9.40;99.90;;;;;;4977591;28;20387;-75
2021/12/01 12:08:54;;;;;;;3.65;0.10;;;9.50;99.90;;;;;;4994921;28;20023;-74
2021/12/01 12:11:37;;;;;;;6.28;0.00;;;9.50;99.90;;;;;;4995240;28;20022;-75
2021/12/01 12:14:07;;;;;;;10.15;0.40;;;9.50;99.90;;;;;;4995715;28;20057;-74
2021/12/01 12:16:36;;;;;;;6.32;0.03;;;9.50;99.90;;;;;;4995033;28;20029;-74
2021/12/01 12:19:03;;;;;;;;;;;9.40;99.90;;;;;;4995429;28;20095;-75
2021/12/01 12:24:09;;;;;;;3.20;0.00;;;9.40;99.90;;;;;;4995261;28;20053;-74
2021/12/01 12:26:40;;;;;;;2.67;0.00;;;9.40;99.90;;;;;;4995118;28;20022;-74
2021/12/01 12:29:18;;;;;;;3.25;0.00;;;9.40;99.90;;;;;;4995940;28;20050;-74
2021/12/01 12:31:46;;;;;;;7.87;0.20;;;9.40;99.90;;;;;;4995363;28;20094;-75
2021/12/01 12:34:17;;;;;;;6.78;0.50;;;9.40;99.90;;;;;;4995038;28;20373;-75
2021/12/01 12:36:53;;;;;;;3.88;0.38;;;9.40;99.90;;;;;;4994711;28;20105;-73
2021/12/01 12:39:23;;;;;;;9.57;0.10;;;9.40;99.90;;;;;;4977513;28;20026;-74
2021/12/01 12:41:55;;;;;;;6.00;0.28;;;9.40;99.90;;;;;;4977282;28;20510;-74
2021/12/01 12:44:39;;;;;;;3.10;0.52;;;9.30;99.90;;;;;;4977461;28;20035;-73
2021/12/01 12:47:06;;;;;;;3.25;0.20;;;9.30;99.90;;;;;;4994486;28;20031;-74
2021/12/01 12:50:12;;;;;;;4.53;0.10;;;9.30;99.90;;;;;;4994897;28;20022;-74
2021/12/01 12:52:39;;;;;;;4.57;0.35;;;9.30;99.90;;;;;;4972242;28;20046;-75
2021/12/01 12:55:09;;;;;;;7.70;0.70;;;9.20;99.90;;;;;;4976204;28;20015;-74
2021/12/01 12:58:05;;;;;;;10.02;0.32;;;9.20;99.90;;;;;;4994012;28;20569;-74
2021/12/01 13:00:59;;;;;;;3.17;0.00;;;9.20;99.90;;;;;;4947824;28;20038;-75
2021/12/01 13:03:26;;;;;;;4.68;0.28;;;9.20;99.90;;;;;;4974421;28;20491;-75
2021/12/01 13:05:54;;;;;;;6.00;0.38;;;9.20;99.90;;;;;;4993970;28;20034;-75
2021/12/01 13:08:34;;;;;;;5.25;0.38;;;9.20;99.90;;;;;;4993856;28;20031;-76